sensor_id;sensor_type;location;lat;lon;timestamp;pressure;altitude;pressure_sealevel;temperature;humidity
56671;BME280;42545;50.054;8.306;2023-04-21T00:01:10;99693.03;;;5.94;100.00
56671;BME280;42545;50.054;8.306;2023-04-21T00:03:37;99693.88;;;5.93;100.00
56671;BME280;42545;50.054;8.306;2023-04-21T00:06:06;99691.19;;;5.90;100.00
56671;BME280;42545;50.054;8.306;2023-04-21T00:08:36;99691.97;;;5.87;100.00
56671;BME280;42545;50.054;8.306;2023-04-21T00:11:04;99688.34;;;5.84;100.00
56671;BME280;42545;50.054;8.306;2023-04-21T00:13:32;99687.38;;;5.80;100.00
56671;BME280;42545;50.054;8.306;2023-04-21T00:15:58;99683.75;;;5.75;100.00
56671;BME280;42545;50.054;8.306;2023-04-21T00:18:26;99687.16;;;5.72;100.00
56671;BME280;42545;50.054;8.306;2023-04-21T00:20:53;99688.78;;;5.69;100.00
56671;BME280;42545;50.054;8.306;2023-04-21T00:23:19;99679.91;;;5.64;100.00
56671;BME280;42545;50.054;8.306;2023-04-21T00:25:47;99678.97;;;5.62;100.00
56671;BME280;42545;50.054;8.306;2023-04-21T00:28:14;99675.44;;;5.59;100.00
56671;BME280;42545;50.054;8.306;2023-04-21T00:30:41;99677.94;;;5.56;100.00
56671;BME280;42545;50.054;8.306;2023-04-21T00:33:07;99665.44;;;5.46;100.00
56671;BME280;42545;50.054;8.306;2023-04-21T00:35:34;99679.50;;;5.50;100.00
56671;BME280;42545;50.054;8.306;2023-04-21T00:38:01;99682.03;;;5.47;100.00
56671;BME280;42545;50.054;8.306;2023-04-21T00:40:28;99683.72;;;5.45;100.00
56671;BME280;42545;50.054;8.306;2023-04-21T00:42:56;99674.72;;;5.36;100.00
56671;BME280;42545;50.054;8.306;2023-04-21T00:45:23;99673.84;;;5.36;100.00
56671;BME280;42545;50.054;8.306;2023-04-21T00:47:49;99666.75;;;5.32;100.00
56671;BME280;42545;50.054;8.306;2023-04-21T00:50:16;99681.56;;;5.31;100.00
56671;BME280;42545;50.054;8.306;2023-04-21T00:52:44;99667.50;;;5.29;100.00
56671;BME280;42545;50.054;8.306;2023-04-21T00:55:13;99675.25;;;5.25;100.00
56671;BME280;42545;50.054;8.306;2023-04-21T00:57:40;99676.00;;;5.20;100.00
56671;BME280;42545;50.054;8.306;2023-04-21T01:00:09;99675.00;;;5.17;100.00
56671;BME280;42545;50.054;8.306;2023-04-21T01:02:37;99667.94;;;5.14;100.00
56671;BME280;42545;50.054;8.306;2023-04-21T01:05:05;99673.16;;;5.14;100.00
56671;BME280;42545;50.054;8.306;2023-04-21T01:07:33;99670.41;;;5.10;100.00
56671;BME280;42545;50.054;8.306;2023-04-21T01:09:59;99666.91;;;5.09;100.00
56671;BME280;42545;50.054;8.306;2023-04-21T01:12:26;99663.34;;;5.07;100.00
56671;BME280;42545;50.054;8.306;2023-04-21T01:14:52;99664.19;;;5.06;100.00
56671;BME280;42545;50.054;8.306;2023-04-21T01:17:21;99663.16;;;5.01;100.00
56671;BME280;42545;50.054;8.306;2023-04-21T01:19:48;99671.75;;;4.97;100.00
56671;BME280;42545;50.054;8.306;2023-04-21T01:22:17;99669.06;;;4.95;100.00
56671;BME280;42545;50.054;8.306;2023-04-21T01:24:46;99665.53;;;4.93;100.00
56671;BME280;42545;50.054;8.306;2023-04-21T01:27:15;99663.69;;;4.91;100.00
56671;BME280;42545;50.054;8.306;2023-04-21T01:29:44;99674.06;;;4.88;100.00
56671;BME280;42545;50.054;8.306;2023-04-21T01:32:13;99671.28;;;4.83;100.00
56671;BME280;42545;50.054;8.306;2023-04-21T01:34:41;99670.28;;;4.79;100.00
56671;BME280;42545;50.054;8.306;2023-04-21T01:37:08;99665.75;;;4.74;100.00
56671;BME280;42545;50.054;8.306;2023-04-21T01:39:38;99669.97;;;4.70;100.00
56671;BME280;42545;50.054;8.306;2023-04-21T01:42:06;99676.00;;;4.68;100.00
56671;BME280;42545;50.054;8.306;2023-04-21T01:44:33;99671.50;;;4.63;100.00
56671;BME280;42545;50.054;8.306;2023-04-21T01:47:00;99679.25;;;4.60;100.00
56671;BME280;42545;50.054;8.306;2023-04-21T01:49:26;99680.00;;;4.58;100.00
56671;BME280;42545;50.054;8.306;2023-04-21T01:51:54;99673.91;;;4.57;100.00
56671;BME280;42545;50.054;8.306;2023-04-21T01:54:20;99673.84;;;4.56;100.00
56671;BME280;42545;50.054;8.306;2023-04-21T01:56:49;99673.66;;;4.50;100.00
56671;BME280;42545;50.054;8.306;2023-04-21T01:59:15;99685.84;;;4.49;100.00
56671;BME280;42545;50.054;8.306;2023-04-21T02:01:42;99674.38;;;4.46;100.00
56671;BME280;42545;50.054;8.306;2023-04-21T02:04:09;99674.34;;;4.44;100.00
56671;BME280;42545;50.054;8.306;2023-04-21T02:06:36;99678.63;;;4.42;100.00
56671;BME280;42545;50.054;8.306;2023-04-21T02:09:02;99679.56;;;4.44;100.00
56671;BME280;42545;50.054;8.306;2023-04-21T02:11:29;99675.06;;;4.40;100.00
56671;BME280;42545;50.054;8.306;2023-04-21T02:13:58;99666.13;;;4.33;100.00
56671;BME280;42545;50.054;8.306;2023-04-21T02:16:25;99675.63;;;4.31;100.00
56671;BME280;42545;50.054;8.306;2023-04-21T02:18:53;99667.72;;;4.30;100.00
56671;BME280;42545;50.054;8.306;2023-04-21T02:21:21;99672.97;;;4.30;100.00
56671;BME280;42545;50.054;8.306;2023-04-21T02:23:48;99669.41;;;4.28;100.00
56671;BME280;42545;50.054;8.306;2023-04-21T02:26:15;99668.53;;;4.27;100.00
56671;BME280;42545;50.054;8.306;2023-04-21T02:28:42;99668.47;;;4.26;100.00
56671;BME280;42545;50.054;8.306;2023-04-21T02:31:11;99675.44;;;4.27;100.00
56671;BME280;42545;50.054;8.306;2023-04-21T02:33:38;99674.50;;;4.24;100.00
56671;BME280;42545;50.054;8.306;2023-04-21T02:36:05;99658.56;;;4.17;100.00
56671;BME280;42545;50.054;8.306;2023-04-21T02:38:32;99670.84;;;4.19;100.00
56671;BME280;42545;50.054;8.306;2023-04-21T02:40:59;99670.63;;;4.13;100.00
56671;BME280;42545;50.054;8.306;2023-04-21T02:43:25;99678.34;;;4.10;100.00
56671;BME280;42545;50.054;8.306;2023-04-21T02:45:53;99686.34;;;4.15;100.00
56671;BME280;42545;50.054;8.306;2023-04-21T02:48:22;99680.28;;;4.16;100.00
56671;BME280;42545;50.054;8.306;2023-04-21T02:50:49;99676.78;;;4.15;100.00
56671;BME280;42545;50.054;8.306;2023-04-21T02:53:17;99676.84;;;4.17;100.00
56671;BME280;42545;50.054;8.306;2023-04-21T02:55:44;99673.38;;;4.18;100.00
56671;BME280;42545;50.054;8.306;2023-04-21T02:58:11;99681.34;;;4.21;100.00
56671;BME280;42545;50.054;8.306;2023-04-21T03:00:38;99674.50;;;4.24;100.00
56671;BME280;42545;50.054;8.306;2023-04-21T03:03:07;99671.06;;;4.26;100.00
56671;BME280;42545;50.054;8.306;2023-04-21T03:05:35;99679.91;;;4.29;100.00
56671;BME280;42545;50.054;8.306;2023-04-21T03:08:02;99686.88;;;4.30;100.00
56671;BME280;42545;50.054;8.306;2023-04-21T03:10:28;99694.72;;;4.30;100.00
56671;BME280;42545;50.054;8.306;2023-04-21T03:12:55;99681.59;;;4.27;100.00
56671;BME280;42545;50.054;8.306;2023-04-21T03:15:22;99681.53;;;4.26;100.00
56671;BME280;42545;50.054;8.306;2023-04-21T03:17:48;99684.81;;;4.20;100.00
56671;BME280;42545;50.054;8.306;2023-04-21T03:20:15;99689.97;;;4.18;100.00
56671;BME280;42545;50.054;8.306;2023-04-21T03:22:44;99695.06;;;4.15;100.00
56671;BME280;42545;50.054;8.306;2023-04-21T03:25:10;99697.53;;;4.11;100.00
56671;BME280;42545;50.054;8.306;2023-04-21T03:27:37;99668.13;;;3.92;100.00
56671;BME280;42545;50.054;8.306;2023-04-21T03:30:05;99699.91;;;4.04;100.00
56671;BME280;42545;50.054;8.306;2023-04-21T03:32:32;99696.28;;;4.01;100.00
56671;BME280;42545;50.054;8.306;2023-04-21T03:34:59;99691.84;;;3.98;100.00
56671;BME280;42545;50.054;8.306;2023-04-21T03:37:26;99693.56;;;3.98;100.00
56671;BME280;42545;50.054;8.306;2023-04-21T03:39:53;99681.28;;;3.95;100.00
56671;BME280;42545;50.054;8.306;2023-04-21T03:42:20;99692.78;;;4.00;100.00
56671;BME280;42545;50.054;8.306;2023-04-21T03:44:46;99686.69;;;4.00;100.00
56671;BME280;42545;50.054;8.306;2023-04-21T03:47:15;99687.56;;;4.00;100.00
56671;BME280;42545;50.054;8.306;2023-04-21T03:49:41;99696.34;;;4.02;100.00
56671;BME280;42545;50.054;8.306;2023-04-21T03:52:09;99685.91;;;4.02;100.00
56671;BME280;42545;50.054;8.306;2023-04-21T03:54:36;99679.00;;;4.04;100.00
56671;BME280;42545;50.054;8.306;2023-04-21T03:57:04;99679.75;;;4.00;100.00
56671;BME280;42545;50.054;8.306;2023-04-21T03:59:31;99670.03;;;3.96;100.00
56671;BME280;42545;50.054;8.306;2023-04-21T04:01:57;99683.97;;;3.97;100.00
56671;BME280;42545;50.054;8.306;2023-04-21T04:04:24;99676.06;;;3.95;100.00
56671;BME280;42545;50.054;8.306;2023-04-21T04:06:51;99678.69;;;3.95;100.00
56671;BME280;42545;50.054;8.306;2023-04-21T04:09:18;99670.84;;;3.95;100.00
56671;BME280;42545;50.054;8.306;2023-04-21T04:11:45;99672.59;;;3.95;100.00
56671;BME280;42545;50.054;8.306;2023-04-21T04:14:15;99675.13;;;3.93;100.00
56671;BME280;42545;50.054;8.306;2023-04-21T04:16:42;99678.56;;;3.92;100.00
56671;BME280;42545;50.054;8.306;2023-04-21T04:19:08;99675.91;;;3.91;100.00
56671;BME280;42545;50.054;8.306;2023-04-21T04:21:37;99680.22;;;3.90;100.00
56671;BME280;42545;50.054;8.306;2023-04-21T04:24:04;99674.94;;;3.89;100.00
56671;BME280;42545;50.054;8.306;2023-04-21T04:26:32;99674.84;;;3.85;100.00
56671;BME280;42545;50.054;8.306;2023-04-21T04:28:59;99674.66;;;3.81;100.00
56671;BME280;42545;50.054;8.306;2023-04-21T04:31:30;99674.59;;;3.79;100.00
56671;BME280;42545;50.054;8.306;2023-04-21T04:33:57;99665.78;;;3.76;100.00
56671;BME280;42545;50.054;8.306;2023-04-21T04:36:24;99665.78;;;3.76;100.00
56671;BME280;42545;50.054;8.306;2023-04-21T04:38:53;99667.56;;;3.77;100.00
56671;BME280;42545;50.054;8.306;2023-04-21T04:41:21;99662.47;;;3.80;100.00
56671;BME280;42545;50.054;8.306;2023-04-21T04:43:48;99666.84;;;3.81;100.00
56671;BME280;42545;50.054;8.306;2023-04-21T04:46:15;99665.22;;;3.84;100.00
56671;BME280;42545;50.054;8.306;2023-04-21T04:48:46;99668.84;;;3.88;100.00
56671;BME280;42545;50.054;8.306;2023-04-21T04:51:13;99653.91;;;3.84;100.00
56671;BME280;42545;50.054;8.306;2023-04-21T04:53:40;99668.13;;;3.92;100.00
56671;BME280;42545;50.054;8.306;2023-04-21T04:56:07;99660.34;;;3.94;100.00
56671;BME280;42545;50.054;8.306;2023-04-21T04:58:33;99666.69;;;4.00;100.00
56671;BME280;42545;50.054;8.306;2023-04-21T05:01:10;99666.84;;;4.05;100.00
56671;BME280;42545;50.054;8.306;2023-04-21T05:03:36;99668.63;;;4.06;100.00
56671;BME280;42545;50.054;8.306;2023-04-21T05:06:05;99674.03;;;4.11;100.00
56671;BME280;42545;50.054;8.306;2023-04-21T05:08:31;99674.06;;;4.12;100.00
56671;BME280;42545;50.054;8.306;2023-04-21T05:10:58;99670.63;;;4.13;100.00
56671;BME280;42545;50.054;8.306;2023-04-21T05:13:25;99676.72;;;4.14;100.00
56671;BME280;42545;50.054;8.306;2023-04-21T05:15:56;99673.31;;;4.15;100.00
56671;BME280;42545;50.054;8.306;2023-04-21T05:18:23;99684.63;;;4.15;100.00
56671;BME280;42545;50.054;8.306;2023-04-21T05:20:50;99679.41;;;4.15;100.00
56671;BME280;42545;50.054;8.306;2023-04-21T05:23:18;99681.13;;;4.15;100.00
56671;BME280;42545;50.054;8.306;2023-04-21T05:25:45;99685.50;;;4.16;100.00
56671;BME280;42545;50.054;8.306;2023-04-21T05:28:12;99681.19;;;4.16;100.00
56671;BME280;42545;50.054;8.306;2023-04-21T05:30:39;99676.06;;;4.19;100.00
56671;BME280;42545;50.054;8.306;2023-04-21T05:33:05;99675.25;;;4.20;100.00
56671;BME280;42545;50.054;8.306;2023-04-21T05:35:33;99666.69;;;4.24;100.00
56671;BME280;42545;50.054;8.306;2023-04-21T05:38:00;99665.13;;;4.30;100.00
56671;BME280;42545;50.054;8.306;2023-04-21T05:40:28;99666.94;;;4.32;100.00
56671;BME280;42545;50.054;8.306;2023-04-21T05:42:55;99674.06;;;4.36;100.00
56671;BME280;42545;50.054;8.306;2023-04-21T05:45:22;99672.34;;;4.37;100.00
56671;BME280;42545;50.054;8.306;2023-04-21T05:47:49;99682.94;;;4.41;100.00
56671;BME280;42545;50.054;8.306;2023-04-21T05:50:16;99680.38;;;4.43;100.00
56671;BME280;42545;50.054;8.306;2023-04-21T05:52:43;99688.28;;;4.45;100.00
56671;BME280;42545;50.054;8.306;2023-04-21T05:55:12;99689.22;;;4.47;100.00
56671;BME280;42545;50.054;8.306;2023-04-21T05:57:40;99681.38;;;4.47;100.00
56671;BME280;42545;50.054;8.306;2023-04-21T06:00:07;99687.75;;;4.55;100.00
56671;BME280;42545;50.054;8.306;2023-04-21T06:02:37;99682.69;;;4.59;100.00
56671;BME280;42545;50.054;8.306;2023-04-21T06:05:04;99682.91;;;4.66;100.00
56671;BME280;42545;50.054;8.306;2023-04-21T06:07:30;99676.09;;;4.71;100.00
56671;BME280;42545;50.054;8.306;2023-04-21T06:09:57;99683.34;;;4.79;100.00
56671;BME280;42545;50.054;8.306;2023-04-21T06:12:24;99687.91;;;4.85;100.00
56671;BME280;42545;50.054;8.306;2023-04-21T06:14:52;99692.56;;;4.94;100.00
56671;BME280;42545;50.054;8.306;2023-04-21T06:17:21;99677.91;;;4.99;100.00
56671;BME280;42545;50.054;8.306;2023-04-21T06:19:48;99672.88;;;5.05;100.00
56671;BME280;42545;50.054;8.306;2023-04-21T06:22:17;99666.16;;;5.13;100.00
56671;BME280;42545;50.054;8.306;2023-04-21T06:24:44;99677.69;;;5.20;100.00
56671;BME280;42545;50.054;8.306;2023-04-21T06:27:10;99682.25;;;5.26;100.00
56671;BME280;42545;50.054;8.306;2023-04-21T06:29:37;99678.13;;;5.34;100.00
56671;BME280;42545;50.054;8.306;2023-04-21T06:32:06;99677.53;;;5.43;100.00
56671;BME280;42545;50.054;8.306;2023-04-21T06:34:32;99681.22;;;5.49;100.00
56671;BME280;42545;50.054;8.306;2023-04-21T06:36:59;99675.31;;;5.56;100.00
56671;BME280;42545;50.054;8.306;2023-04-21T06:39:26;99671.34;;;5.68;100.00
56671;BME280;42545;50.054;8.306;2023-04-21T06:41:53;99680.38;;;5.79;100.00
56671;BME280;42545;50.054;8.306;2023-04-21T06:44:22;99690.25;;;5.89;100.00
56671;BME280;42545;50.054;8.306;2023-04-21T06:46:48;99691.47;;;5.99;100.00
56671;BME280;42545;50.054;8.306;2023-04-21T06:49:16;99689.13;;;6.08;100.00
56671;BME280;42545;50.054;8.306;2023-04-21T06:51:43;99694.50;;;6.14;100.00
56671;BME280;42545;50.054;8.306;2023-04-21T06:54:10;99699.13;;;6.23;100.00
56671;BME280;42545;50.054;8.306;2023-04-21T06:56:37;99697.59;;;6.31;100.00
56671;BME280;42545;50.054;8.306;2023-04-21T06:59:04;99685.56;;;6.38;100.00
56671;BME280;42545;50.054;8.306;2023-04-21T07:01:30;99690.97;;;6.44;100.00
56671;BME280;42545;50.054;8.306;2023-04-21T07:03:57;99694.59;;;6.49;100.00
56671;BME280;42545;50.054;8.306;2023-04-21T07:06:25;99695.56;;;6.53;100.00
56671;BME280;42545;50.054;8.306;2023-04-21T07:08:52;99693.91;;;6.57;100.00
56671;BME280;42545;50.054;8.306;2023-04-21T07:11:19;99694.06;;;6.61;100.00
56671;BME280;42545;50.054;8.306;2023-04-21T07:13:45;99695.06;;;6.66;100.00
56671;BME280;42545;50.054;8.306;2023-04-21T07:16:12;99696.97;;;6.72;100.00
56671;BME280;42545;50.054;8.306;2023-04-21T07:18:39;99685.66;;;6.74;100.00
56671;BME280;42545;50.054;8.306;2023-04-21T07:21:06;99694.53;;;6.80;100.00
56671;BME280;42545;50.054;8.306;2023-04-21T07:23:34;99698.94;;;6.82;100.00
56671;BME280;42545;50.054;8.306;2023-04-21T07:26:01;99691.25;;;6.88;100.00
56671;BME280;42545;50.054;8.306;2023-04-21T07:28:27;99684.41;;;6.95;100.00
56671;BME280;42545;50.054;8.306;2023-04-21T07:30:54;99680.13;;;6.99;100.00
56671;BME280;42545;50.054;8.306;2023-04-21T07:33:21;99683.81;;;7.05;100.00
56671;BME280;42545;50.054;8.306;2023-04-21T07:35:47;99683.16;;;7.14;100.00
56671;BME280;42545;50.054;8.306;2023-04-21T07:38:14;99690.38;;;7.24;100.00
56671;BME280;42545;50.054;8.306;2023-04-21T07:40:42;99677.31;;;7.27;100.00
56671;BME280;42545;50.054;8.306;2023-04-21T07:43:09;99686.38;;;7.40;100.00
56671;BME280;42545;50.054;8.306;2023-04-21T07:45:36;99691.75;;;7.45;100.00
56671;BME280;42545;50.054;8.306;2023-04-21T07:48:02;99687.50;;;7.51;100.00
56671;BME280;42545;50.054;8.306;2023-04-21T07:50:30;99673.56;;;7.54;100.00
56671;BME280;42545;50.054;8.306;2023-04-21T07:52:57;99685.19;;;7.65;100.00
56671;BME280;42545;50.054;8.306;2023-04-21T07:55:24;99679.22;;;7.73;100.00
56671;BME280;42545;50.054;8.306;2023-04-21T07:57:54;99691.56;;;7.77;100.00
56671;BME280;42545;50.054;8.306;2023-04-21T08:00:21;99692.63;;;7.85;100.00
56671;BME280;42545;50.054;8.306;2023-04-21T08:02:47;99686.63;;;7.91;100.00
56671;BME280;42545;50.054;8.306;2023-04-21T08:05:14;99691.16;;;7.99;100.00
56671;BME280;42545;50.054;8.306;2023-04-21T08:07:40;99687.69;;;8.00;100.00
56671;BME280;42545;50.054;8.306;2023-04-21T08:10:09;99679.06;;;8.07;100.00
56671;BME280;42545;50.054;8.306;2023-04-21T08:12:36;99668.72;;;8.15;100.00
56671;BME280;42545;50.054;8.306;2023-04-21T08:15:05;99667.19;;;8.26;100.00
56671;BME280;42545;50.054;8.306;2023-04-21T08:17:32;99670.16;;;8.42;100.00
56671;BME280;42545;50.054;8.306;2023-04-21T08:19:59;99661.56;;;8.51;100.00
56671;BME280;42545;50.054;8.306;2023-04-21T08:22:27;99665.31;;;8.66;100.00
56671;BME280;42545;50.054;8.306;2023-04-21T08:24:54;99674.28;;;8.78;100.00
56671;BME280;42545;50.054;8.306;2023-04-21T08:27:21;99671.81;;;8.85;100.00
56671;BME280;42545;50.054;8.306;2023-04-21T08:29:48;99673.63;;;8.90;100.00
56671;BME280;42545;50.054;8.306;2023-04-21T08:32:17;99680.69;;;8.94;100.00
56671;BME280;42545;50.054;8.306;2023-04-21T08:34:47;99683.34;;;8.94;100.00
56671;BME280;42545;50.054;8.306;2023-04-21T08:37:16;99686.94;;;8.99;100.00
56671;BME280;42545;50.054;8.306;2023-04-21T08:39:42;99682.56;;;9.01;100.00
56671;BME280;42545;50.054;8.306;2023-04-21T08:42:09;99683.47;;;9.00;100.00
56671;BME280;42545;50.054;8.306;2023-04-21T08:44:36;99681.66;;;8.99;100.00
56671;BME280;42545;50.054;8.306;2023-04-21T08:47:05;99683.47;;;9.01;100.00
56671;BME280;42545;50.054;8.306;2023-04-21T08:49:34;99677.41;;;9.07;100.00
56671;BME280;42545;50.054;8.306;2023-04-21T08:52:04;99671.47;;;9.19;100.00
56671;BME280;42545;50.054;8.306;2023-04-21T08:54:31;99667.22;;;9.29;100.00
56671;BME280;42545;50.054;8.306;2023-04-21T08:56:59;99664.88;;;9.46;100.00
56671;BME280;42545;50.054;8.306;2023-04-21T08:59:27;99668.50;;;9.55;100.00
56671;BME280;42545;50.054;8.306;2023-04-21T09:02:10;99665.03;;;9.59;100.00
56671;BME280;42545;50.054;8.306;2023-04-21T09:04:40;99663.38;;;9.66;100.00
56671;BME280;42545;50.054;8.306;2023-04-21T09:07:07;99664.25;;;9.67;100.00
56671;BME280;42545;50.054;8.306;2023-04-21T09:09:50;99659.03;;;9.68;100.00
56671;BME280;42545;50.054;8.306;2023-04-21T09:12:17;99656.44;;;9.74;100.00
56671;BME280;42545;50.054;8.306;2023-04-21T09:14:44;99652.22;;;9.84;100.00
56671;BME280;42545;50.054;8.306;2023-04-21T09:17:11;99648.81;;;9.94;100.00
56671;BME280;42545;50.054;8.306;2023-04-21T09:19:43;99637.47;;;10.01;100.00
56671;BME280;42545;50.054;8.306;2023-04-21T09:22:13;99639.41;;;10.15;100.00
56671;BME280;42545;50.054;8.306;2023-04-21T09:24:44;99640.38;;;10.23;100.00
56671;BME280;42545;50.054;8.306;2023-04-21T09:27:11;99644.00;;;10.31;100.00
56671;BME280;42545;50.054;8.306;2023-04-21T09:29:38;99643.34;;;10.52;100.00
56671;BME280;42545;50.054;8.306;2023-04-21T09:32:11;99635.66;;;10.77;100.00
56671;BME280;42545;50.054;8.306;2023-04-21T09:34:41;99637.63;;;11.01;100.00
56671;BME280;42545;50.054;8.306;2023-04-21T09:37:10;99630.69;;;11.19;100.00
56671;BME280;42545;50.054;8.306;2023-04-21T09:39:37;99633.41;;;11.28;100.00
56671;BME280;42545;50.054;8.306;2023-04-21T09:42:03;99638.72;;;11.37;98.84
56671;BME280;42545;50.054;8.306;2023-04-21T09:44:30;99635.31;;;11.53;98.84
56671;BME280;42545;50.054;8.306;2023-04-21T09:47:00;99623.91;;;11.58;96.73
56671;BME280;42545;50.054;8.306;2023-04-21T09:49:28;99630.13;;;11.70;96.91
56671;BME280;42545;50.054;8.306;2023-04-21T09:51:58;99628.53;;;11.96;97.40
56671;BME280;42545;50.054;8.306;2023-04-21T09:54:29;99634.75;;;12.16;94.76
56671;BME280;42545;50.054;8.306;2023-04-21T09:56:58;99632.13;;;12.25;93.51
56671;BME280;42545;50.054;8.306;2023-04-21T09:59:37;99633.94;;;12.33;92.81
56671;BME280;42545;50.054;8.306;2023-04-21T10:02:06;99630.38;;;12.34;92.21
56671;BME280;42545;50.054;8.306;2023-04-21T10:04:34;99632.16;;;12.41;92.57
56671;BME280;42545;50.054;8.306;2023-04-21T10:07:05;99624.25;;;12.38;90.95
56671;BME280;42545;50.054;8.306;2023-04-21T10:09:37;99629.53;;;12.38;90.91
56671;BME280;42545;50.054;8.306;2023-04-21T10:12:06;99617.19;;;12.44;91.37
56671;BME280;42545;50.054;8.306;2023-04-21T10:14:34;99618.09;;;12.69;92.44
56671;BME280;42545;50.054;8.306;2023-04-21T10:17:03;99615.47;;;12.91;89.63
56671;BME280;42545;50.054;8.306;2023-04-21T10:19:30;99609.28;;;13.00;88.99
56671;BME280;42545;50.054;8.306;2023-04-21T10:22:00;99616.34;;;13.04;87.35
56671;BME280;42545;50.054;8.306;2023-04-21T10:24:29;99593.34;;;13.14;87.46
56671;BME280;42545;50.054;8.306;2023-04-21T10:26:56;99612.78;;;13.43;88.04
56671;BME280;42545;50.054;8.306;2023-04-21T10:29:31;99617.16;;;13.55;85.79
56671;BME280;42545;50.054;8.306;2023-04-21T10:31:58;99605.66;;;13.58;84.21
56671;BME280;42545;50.054;8.306;2023-04-21T10:34:33;99609.19;;;13.61;84.23
56671;BME280;42545;50.054;8.306;2023-04-21T10:37:11;99613.63;;;13.50;82.08
56671;BME280;42545;50.054;8.306;2023-04-21T10:39:50;99605.75;;;13.36;81.42
56671;BME280;42545;50.054;8.306;2023-04-21T10:42:19;99607.50;;;13.40;82.65
56671;BME280;42545;50.054;8.306;2023-04-21T10:44:51;99601.25;;;13.58;83.32
56671;BME280;42545;50.054;8.306;2023-04-21T10:47:24;99601.19;;;13.75;82.94
56671;BME280;42545;50.054;8.306;2023-04-21T10:49:51;99596.75;;;13.79;80.76
56671;BME280;42545;50.054;8.306;2023-04-21T10:52:18;99594.13;;;13.70;78.11
56671;BME280;42545;50.054;8.306;2023-04-21T10:55:05;99601.22;;;13.63;79.68
56671;BME280;42545;50.054;8.306;2023-04-21T10:57:35;99595.88;;;13.74;80.39
56671;BME280;42545;50.054;8.306;2023-04-21T11:00:03;99586.97;;;13.93;81.25
56671;BME280;42545;50.054;8.306;2023-04-21T11:02:31;99587.75;;;14.15;80.30
56671;BME280;42545;50.054;8.306;2023-04-21T11:04:59;99585.94;;;14.17;78.38
56671;BME280;42545;50.054;8.306;2023-04-21T11:07:27;99587.78;;;14.04;78.84
56671;BME280;42545;50.054;8.306;2023-04-21T11:09:58;99578.97;;;14.04;79.08
56671;BME280;42545;50.054;8.306;2023-04-21T11:12:28;99577.19;;;14.03;78.67
56671;BME280;42545;50.054;8.306;2023-04-21T11:14:55;99573.72;;;13.96;78.34
56671;BME280;42545;50.054;8.306;2023-04-21T11:17:23;99571.88;;;14.01;76.62
56671;BME280;42545;50.054;8.306;2023-04-21T11:19:51;99569.16;;;14.17;78.44
56671;BME280;42545;50.054;8.306;2023-04-21T11:22:19;99567.25;;;14.36;76.72
56671;BME280;42545;50.054;8.306;2023-04-21T11:24:47;99547.81;;;14.35;76.07
56671;BME280;42545;50.054;8.306;2023-04-21T11:27:14;99562.72;;;14.52;75.41
56671;BME280;42545;50.054;8.306;2023-04-21T11:29:44;99558.19;;;14.69;75.86
56671;BME280;42545;50.054;8.306;2023-04-21T11:32:12;99557.31;;;14.69;74.42
56671;BME280;42545;50.054;8.306;2023-04-21T11:34:40;99559.97;;;14.69;73.79
56671;BME280;42545;50.054;8.306;2023-04-21T11:37:07;99557.38;;;14.64;73.99
56671;BME280;42545;50.054;8.306;2023-04-21T11:39:34;99551.22;;;14.57;74.34
56671;BME280;42545;50.054;8.306;2023-04-21T11:42:00;99550.31;;;14.52;74.53
56671;BME280;42545;50.054;8.306;2023-04-21T11:44:32;99549.50;;;14.46;73.86
56671;BME280;42545;50.054;8.306;2023-04-21T11:47:11;99552.09;;;14.53;74.44
56671;BME280;42545;50.054;8.306;2023-04-21T11:49:43;99538.81;;;14.53;74.90
56671;BME280;42545;50.054;8.306;2023-04-21T11:52:10;99537.06;;;14.58;73.86
56671;BME280;42545;50.054;8.306;2023-04-21T11:54:38;99529.06;;;14.60;74.45
56671;BME280;42545;50.054;8.306;2023-04-21T11:57:05;99537.75;;;14.79;74.28
56671;BME280;42545;50.054;8.306;2023-04-21T11:59:31;99541.91;;;15.08;75.02
56671;BME280;42545;50.054;8.306;2023-04-21T12:01:58;99538.91;;;15.38;73.81
56671;BME280;42545;50.054;8.306;2023-04-21T12:04:28;99533.38;;;15.57;71.60
56671;BME280;42545;50.054;8.306;2023-04-21T12:06:57;99531.38;;;15.78;72.38
56671;BME280;42545;50.054;8.306;2023-04-21T12:09:24;99529.41;;;15.92;71.30
56671;BME280;42545;50.054;8.306;2023-04-21T12:11:53;99524.88;;;15.99;70.36
56671;BME280;42545;50.054;8.306;2023-04-21T12:14:21;99517.59;;;16.11;69.72
56671;BME280;42545;50.054;8.306;2023-04-21T12:16:50;99509.47;;;16.21;69.10
56671;BME280;42545;50.054;8.306;2023-04-21T12:19:24;99518.25;;;16.27;70.42
56671;BME280;42545;50.054;8.306;2023-04-21T12:22:06;99507.38;;;16.43;69.91
56671;BME280;42545;50.054;8.306;2023-04-21T12:24:33;99512.81;;;16.33;68.37
56671;BME280;42545;50.054;8.306;2023-04-21T12:27:00;99504.09;;;16.24;67.51
56671;BME280;42545;50.054;8.306;2023-04-21T12:29:27;99498.91;;;16.14;67.60
56671;BME280;42545;50.054;8.306;2023-04-21T12:31:54;99499.78;;;16.15;68.75
56671;BME280;42545;50.054;8.306;2023-04-21T12:34:21;99497.88;;;16.26;69.97
56671;BME280;42545;50.054;8.306;2023-04-21T12:36:50;99502.03;;;16.43;69.39
56671;BME280;42545;50.054;8.306;2023-04-21T12:39:18;99504.50;;;16.53;69.83
56671;BME280;42545;50.054;8.306;2023-04-21T12:41:47;99493.81;;;16.55;68.53
56671;BME280;42545;50.054;8.306;2023-04-21T12:44:15;99490.44;;;16.47;66.86
56671;BME280;42545;50.054;8.306;2023-04-21T12:46:42;99496.78;;;16.37;67.96
56671;BME280;42545;50.054;8.306;2023-04-21T12:49:09;99490.63;;;16.34;67.21
56671;BME280;42545;50.054;8.306;2023-04-21T12:51:36;99494.22;;;16.32;67.92
56671;BME280;42545;50.054;8.306;2023-04-21T12:54:04;99493.47;;;16.21;67.77
56671;BME280;42545;50.054;8.306;2023-04-21T12:56:35;99486.69;;;16.03;67.65
56671;BME280;42545;50.054;8.306;2023-04-21T12:59:03;99493.88;;;15.96;69.00
56671;BME280;42545;50.054;8.306;2023-04-21T13:01:30;99487.69;;;15.95;69.16
56671;BME280;42545;50.054;8.306;2023-04-21T13:03:57;99488.72;;;15.84;67.90